Ek-star — LAMT5 — position and weather

sailwx.info

Track history (hours):
 
Tides and Currents Weather Stations Pressure Air Temp Water Temp Dewpoint Dewpoint Depression Visibility Wind Speed Wind Dir Waves Ship Positions

Ek-star

Last reported at 2016-Feb-10 04:31 UTC. Time now 2016-Feb-10 04:47 UTC.
Position N 59°52' E 030°13'.

Length 135 m; draft 8.2 m.

Type: Ship (hazmat cat A). MMSI: 257433000.

Date/timePositionNaut miles runAvg speedWind from/ knotsBaromVisibWave heightAir tempDewpointWater temp
2016-Feb-10 04:31N 59°52' E 030°13'0 0.0
2016-Feb-10 03:31N 59°52' E 030°13'0 0.0
2016-Feb-10 02:31N 59°52' E 030°13'0 0.0
2016-Feb-10 01:33N 59°52' E 030°13'0 0.0
2016-Feb-10 00:33N 59°52' E 030°13'0 0.0
2016-Feb-09 23:33N 59°52' E 030°13'0 0.0
2016-Feb-09 22:33N 59°52' E 030°13'0 0.0
2016-Feb-09 21:33N 59°52' E 030°13'0 0.0
2016-Feb-09 20:33N 59°52' E 030°13'0 0.0
2016-Feb-09 19:33N 59°52' E 030°13'0 0.0
2016-Feb-09 18:33N 59°52' E 030°13'0 0.0
2016-Feb-09 17:33N 59°52' E 030°13'0 0.0
2016-Feb-09 16:33N 59°52' E 030°13'0 0.0
2016-Feb-09 15:33N 59°52' E 030°13'0 0.0
2016-Feb-09 14:33N 59°52' E 030°13'0 0.0
2016-Feb-09 13:33N 59°52' E 030°13'0 0.0
2016-Feb-09 12:33N 59°52' E 030°13'0 0.0
2016-Feb-09 11:33N 59°52' E 030°13'0 0.0
2016-Feb-09 10:33N 59°52' E 030°13'0 0.0
2016-Feb-09 09:33N 59°52' E 030°13'0 0.0
2016-Feb-09 08:33N 59°52' E 030°13'0 0.0
2016-Feb-09 07:33N 59°52' E 030°13'0 0.0
2016-Feb-09 06:33N 59°52' E 030°13'0 0.0
2016-Feb-09 05:33N 59°52' E 030°13'0 0.0
2016-Feb-09 04:33N 59°52' E 030°13'0 0.0
2016-Feb-09 03:33N 59°52' E 030°13'0 0.0
2016-Feb-09 02:33N 59°52' E 030°13'0 0.0
2016-Feb-09 01:33N 59°52' E 030°13'0 0.0
2016-Feb-09 00:33N 59°52' E 030°13'0 0.0
2016-Feb-08 23:33N 59°52' E 030°13'0 0.0
2016-Feb-08 22:33N 59°52' E 030°13'0 0.0
2016-Feb-08 21:33N 59°52' E 030°13'0 0.0
2016-Feb-08 20:33N 59°52' E 030°13'0 0.0
2016-Feb-08 19:33N 59°52' E 030°13'0 0.0
2016-Feb-08 18:33N 59°52' E 030°13'0 0.0
2016-Feb-08 17:33N 59°52' E 030°13'0 0.0
2016-Feb-08 16:33N 59°52' E 030°13'0 0.0
2016-Feb-08 15:33N 59°52' E 030°13'4 3.7
2016-Feb-08 14:33N 59°54' E 030°07'1111.4
2016-Feb-08 13:32N 59°59' E 029°46'27 0.6
2016-Feb-06 14:15N 60°02' E 028°52'913.7
2016-Feb-06 13:33N 60°02' E 028°34'1313.4
2016-Feb-06 12:33N 60°08' E 028°09'1513.4
2016-Feb-06 11:28N 60°09' E 027°40'2613.6
2016-Feb-06 09:34N 59°59' E 026°53'1413.8
2016-Feb-06 08:34N 59°57' E 026°25'9 0.3
2016-Feb-05 05:31N 60°01' E 026°42'2412.2
2016-Feb-05 03:33N 60°07' E 027°29'1212.0
2016-Feb-05 02:33N 60°11' E 027°51'1312.7
2016-Feb-05 01:33N 60°08' E 028°16'1212.4
2016-Feb-05 00:33N 60°03' E 028°38'1312.9
2016-Feb-04 23:32N 60°02' E 029°05'2010.0
2016-Feb-04 21:29N 59°59' E 029°45'1111.6
2016-Feb-04 20:33N 59°54' E 030°04'5 5.1
2016-Feb-04 19:33N 59°52' E 030°13'0 0.0
2016-Feb-04 18:32N 59°52' E 030°13'0 0.0
2016-Feb-04 17:30N 59°52' E 030°13'0 0.0
2016-Feb-04 16:33N 59°52' E 030°13'0 0.0
2016-Feb-04 15:33N 59°52' E 030°13'0 0.0
2016-Feb-04 14:34N 59°52' E 030°13'0 0.0
2016-Feb-04 13:34N 59°52' E 030°13'0 0.0
2016-Feb-04 12:33N 59°52' E 030°13'0 0.0
2016-Feb-04 11:34N 59°52' E 030°13'0 0.0
2016-Feb-04 10:33N 59°52' E 030°13'0 0.0
2016-Feb-04 09:33N 59°52' E 030°13'0 0.0
2016-Feb-04 08:33N 59°52' E 030°13'0 0.0
2016-Feb-04 07:33N 59°52' E 030°13'0 0.0
2016-Feb-04 06:33N 59°52' E 030°13'0 0.0
2016-Feb-04 05:33N 59°52' E 030°13'0 0.0
2016-Feb-04 04:33N 59°52' E 030°13'0 0.0
2016-Feb-04 03:34N 59°52' E 030°13'0 0.0
2016-Feb-04 02:33N 59°52' E 030°13'0 0.0
2016-Feb-04 01:33N 59°52' E 030°13'0 0.0
2016-Feb-04 00:34N 59°52' E 030°13'0 0.0
2016-Feb-03 23:33N 59°52' E 030°13'0 0.0
2016-Feb-03 22:33N 59°52' E 030°13'0 0.0
2016-Feb-03 21:33N 59°52' E 030°13'0 0.0
2016-Feb-03 20:33N 59°52' E 030°13'0 0.0
2016-Feb-03 19:33N 59°52' E 030°13'0 0.0
2016-Feb-03 18:33N 59°52' E 030°13'0 0.0
2016-Feb-03 17:33N 59°52' E 030°13'0 0.0
2016-Feb-03 16:34N 59°52' E 030°13'0 0.0
2016-Feb-03 15:33N 59°52' E 030°13'0 0.0
2016-Feb-03 14:33N 59°52' E 030°13'0 0.0
2016-Feb-03 13:33N 59°52' E 030°13'0 0.0
2016-Feb-03 12:33N 59°52' E 030°13'0 0.0
2016-Feb-03 11:33N 59°52' E 030°13'0 0.0
2016-Feb-03 10:34N 59°52' E 030°13'0 0.0
2016-Feb-03 09:33N 59°52' E 030°13'0 0.0
2016-Feb-03 08:33N 59°52' E 030°13'0 0.0
2016-Feb-03 07:33N 59°52' E 030°13'0 0.0
2016-Feb-03 06:33N 59°52' E 030°13'2 1.9
2016-Feb-03 05:33N 59°53' E 030°10'1111.5
2016-Feb-03 04:33N 59°57' E 029°49'2811.7
2016-Feb-03 02:06N 60°02' E 028°53'712.8
2016-Feb-03 01:32N 60°02' E 028°38'1212.4
2016-Feb-03 00:33N 60°07' E 028°16'1413.0
2016-Feb-02 23:27N 60°11' E 027°48'2612.9
2016-Feb-02 21:26N 59°58' E 027°02'1113.0
2016-Feb-02 20:34N 59°60' E 026°40'19 0.8
2016-Feb-01 19:29N 59°57' E 026°02'1313.2
2016-Feb-01 18:29N 60°01' E 026°28'1713.0
2016-Feb-01 17:10N 59°59' E 027°02'912.8
2016-Feb-01 16:29N 60°04' E 027°17'1213.0
2016-Feb-01 15:32N 60°10' E 027°39'1212.1
2016-Feb-01 14:33N 60°10' E 028°03'1313.0
2016-Feb-01 13:34N 60°05' E 028°26'1313.2
2016-Feb-01 12:33N 60°03' E 028°53'2311.8
2016-Feb-01 10:33N 59°60' E 029°39'1111.0
2016-Feb-01 09:34N 59°55' E 029°59'8 7.6
2016-Feb-01 08:34N 59°52' E 030°13'0 0.3
2016-Feb-01 07:34N 59°52' E 030°13'0 0.0
2016-Feb-01 06:31N 59°52' E 030°13'0 0.0
2016-Feb-01 05:31N 59°52' E 030°13'0 0.0
2016-Feb-01 04:31N 59°52' E 030°13'0 0.0
2016-Feb-01 03:31N 59°52' E 030°13'0 0.0
2016-Feb-01 02:33N 59°52' E 030°13'0 0.0
2016-Feb-01 01:33N 59°52' E 030°13'0 0.0
2016-Feb-01 00:33N 59°52' E 030°13'0 0.0
2016-Jan-31 23:33N 59°52' E 030°13'0 0.0
2016-Jan-31 22:33N 59°52' E 030°13'0 0.0
2016-Jan-31 21:33N 59°52' E 030°13'0 0.0
2016-Jan-31 20:33N 59°52' E 030°13'0 0.0
2016-Jan-31 19:33N 59°52' E 030°13'0 0.0
2016-Jan-31 18:33N 59°52' E 030°13'0 0.0
2016-Jan-31 17:33N 59°52' E 030°13'0 0.0
2016-Jan-31 16:33N 59°52' E 030°13'0 0.0
2016-Jan-31 15:33N 59°52' E 030°13'0 0.0
2016-Jan-31 14:33N 59°52' E 030°13'0 0.0
2016-Jan-31 13:33N 59°52' E 030°13'0 0.0
2016-Jan-31 12:33N 59°52' E 030°13'0 0.0
2016-Jan-31 11:33N 59°52' E 030°13'0 0.0
2016-Jan-31 10:33N 59°52' E 030°13'0 0.0
2016-Jan-31 09:33N 59°52' E 030°13'0 0.0
2016-Jan-31 08:33N 59°52' E 030°13'0 0.0
2016-Jan-31 07:33N 59°52' E 030°13'0 0.0
2016-Jan-31 06:33N 59°52' E 030°13'0 0.0
2016-Jan-31 05:33N 59°52' E 030°13'0 0.0
2016-Jan-31 04:33N 59°52' E 030°13'  
Track history (hours):
 
Tides and Currents Weather Stations Pressure Air Temp Water Temp Dewpoint Dewpoint Depression Visibility Wind Speed Wind Dir Waves Ship Positions

Ek-star

Last reported at 2016-Feb-10 04:31 UTC. Time now 2016-Feb-10 04:47 UTC.
Position N 59°52' E 030°13'.

Length 135 m; draft 8.2 m.

Type: Ship (hazmat cat A). MMSI: 257433000.

Date/timePositionNaut miles runAvg speedWind from/ knotsBaromVisibWave heightAir tempDewpointWater temp
2016-Feb-10 04:31N 59°52' E 030°13'0 0.0
2016-Feb-10 03:31N 59°52' E 030°13'0 0.0
2016-Feb-10 02:31N 59°52' E 030°13'0 0.0
2016-Feb-10 01:33N 59°52' E 030°13'0 0.0
2016-Feb-10 00:33N 59°52' E 030°13'0 0.0
2016-Feb-09 23:33N 59°52' E 030°13'0 0.0
2016-Feb-09 22:33N 59°52' E 030°13'0 0.0
2016-Feb-09 21:33N 59°52' E 030°13'0 0.0
2016-Feb-09 20:33N 59°52' E 030°13'0 0.0
2016-Feb-09 19:33N 59°52' E 030°13'0 0.0
2016-Feb-09 18:33N 59°52' E 030°13'0 0.0
2016-Feb-09 17:33N 59°52' E 030°13'0 0.0
2016-Feb-09 16:33N 59°52' E 030°13'0 0.0
2016-Feb-09 15:33N 59°52' E 030°13'0 0.0
2016-Feb-09 14:33N 59°52' E 030°13'0 0.0
2016-Feb-09 13:33N 59°52' E 030°13'0 0.0
2016-Feb-09 12:33N 59°52' E 030°13'0 0.0
2016-Feb-09 11:33N 59°52' E 030°13'0 0.0
2016-Feb-09 10:33N 59°52' E 030°13'0 0.0
2016-Feb-09 09:33N 59°52' E 030°13'0 0.0
2016-Feb-09 08:33N 59°52' E 030°13'0 0.0
2016-Feb-09 07:33N 59°52' E 030°13'0 0.0
2016-Feb-09 06:33N 59°52' E 030°13'0 0.0
2016-Feb-09 05:33N 59°52' E 030°13'0 0.0
2016-Feb-09 04:33N 59°52' E 030°13'0 0.0
2016-Feb-09 03:33N 59°52' E 030°13'0 0.0
2016-Feb-09 02:33N 59°52' E 030°13'0 0.0
2016-Feb-09 01:33N 59°52' E 030°13'0 0.0
2016-Feb-09 00:33N 59°52' E 030°13'0 0.0
2016-Feb-08 23:33N 59°52' E 030°13'0 0.0
2016-Feb-08 22:33N 59°52' E 030°13'0 0.0
2016-Feb-08 21:33N 59°52' E 030°13'0 0.0
2016-Feb-08 20:33N 59°52' E 030°13'0 0.0
2016-Feb-08 19:33N 59°52' E 030°13'0 0.0
2016-Feb-08 18:33N 59°52' E 030°13'0 0.0
2016-Feb-08 17:33N 59°52' E 030°13'0 0.0
2016-Feb-08 16:33N 59°52' E 030°13'0 0.0
2016-Feb-08 15:33N 59°52' E 030°13'4 3.7
2016-Feb-08 14:33N 59°54' E 030°07'1111.4
2016-Feb-08 13:32N 59°59' E 029°46'27 0.6
2016-Feb-06 14:15N 60°02' E 028°52'913.7
2016-Feb-06 13:33N 60°02' E 028°34'1313.4
2016-Feb-06 12:33N 60°08' E 028°09'1513.4
2016-Feb-06 11:28N 60°09' E 027°40'2613.6
2016-Feb-06 09:34N 59°59' E 026°53'1413.8
2016-Feb-06 08:34N 59°57' E 026°25'9 0.3
2016-Feb-05 05:31N 60°01' E 026°42'2412.2
2016-Feb-05 03:33N 60°07' E 027°29'1212.0
2016-Feb-05 02:33N 60°11' E 027°51'1312.7
2016-Feb-05 01:33N 60°08' E 028°16'1212.4
2016-Feb-05 00:33N 60°03' E 028°38'1312.9
2016-Feb-04 23:32N 60°02' E 029°05'2010.0
2016-Feb-04 21:29N 59°59' E 029°45'1111.6
2016-Feb-04 20:33N 59°54' E 030°04'5 5.1
2016-Feb-04 19:33N 59°52' E 030°13'0 0.0
2016-Feb-04 18:32N 59°52' E 030°13'0 0.0
2016-Feb-04 17:30N 59°52' E 030°13'0 0.0
2016-Feb-04 16:33N 59°52' E 030°13'0 0.0
2016-Feb-04 15:33N 59°52' E 030°13'0 0.0
2016-Feb-04 14:34N 59°52' E 030°13'0 0.0
2016-Feb-04 13:34N 59°52' E 030°13'0 0.0
2016-Feb-04 12:33N 59°52' E 030°13'0 0.0
2016-Feb-04 11:34N 59°52' E 030°13'0 0.0
2016-Feb-04 10:33N 59°52' E 030°13'0 0.0
2016-Feb-04 09:33N 59°52' E 030°13'0 0.0
2016-Feb-04 08:33N 59°52' E 030°13'0 0.0
2016-Feb-04 07:33N 59°52' E 030°13'0 0.0
2016-Feb-04 06:33N 59°52' E 030°13'0 0.0
2016-Feb-04 05:33N 59°52' E 030°13'0 0.0
2016-Feb-04 04:33N 59°52' E 030°13'0 0.0
2016-Feb-04 03:34N 59°52' E 030°13'0 0.0
2016-Feb-04 02:33N 59°52' E 030°13'0 0.0
2016-Feb-04 01:33N 59°52' E 030°13'0 0.0
2016-Feb-04 00:34N 59°52' E 030°13'0 0.0
2016-Feb-03 23:33N 59°52' E 030°13'0 0.0
2016-Feb-03 22:33N 59°52' E 030°13'0 0.0
2016-Feb-03 21:33N 59°52' E 030°13'0 0.0
2016-Feb-03 20:33N 59°52' E 030°13'0 0.0
2016-Feb-03 19:33N 59°52' E 030°13'0 0.0
2016-Feb-03 18:33N 59°52' E 030°13'0 0.0
2016-Feb-03 17:33N 59°52' E 030°13'0 0.0
2016-Feb-03 16:34N 59°52' E 030°13'0 0.0
2016-Feb-03 15:33N 59°52' E 030°13'0 0.0
2016-Feb-03 14:33N 59°52' E 030°13'0 0.0
2016-Feb-03 13:33N 59°52' E 030°13'0 0.0
2016-Feb-03 12:33N 59°52' E 030°13'0 0.0
2016-Feb-03 11:33N 59°52' E 030°13'0 0.0
2016-Feb-03 10:34N 59°52' E 030°13'0 0.0
2016-Feb-03 09:33N 59°52' E 030°13'0 0.0
2016-Feb-03 08:33N 59°52' E 030°13'0 0.0
2016-Feb-03 07:33N 59°52' E 030°13'0 0.0
2016-Feb-03 06:33N 59°52' E 030°13'2 1.9
2016-Feb-03 05:33N 59°53' E 030°10'1111.5
2016-Feb-03 04:33N 59°57' E 029°49'2811.7
2016-Feb-03 02:06N 60°02' E 028°53'712.8
2016-Feb-03 01:32N 60°02' E 028°38'1212.4
2016-Feb-03 00:33N 60°07' E 028°16'1413.0
2016-Feb-02 23:27N 60°11' E 027°48'2612.9
2016-Feb-02 21:26N 59°58' E 027°02'1113.0
2016-Feb-02 20:34N 59°60' E 026°40'19 0.8
2016-Feb-01 19:29N 59°57' E 026°02'1313.2
2016-Feb-01 18:29N 60°01' E 026°28'1713.0
2016-Feb-01 17:10N 59°59' E 027°02'912.8
2016-Feb-01 16:29N 60°04' E 027°17'1213.0
2016-Feb-01 15:32N 60°10' E 027°39'1212.1
2016-Feb-01 14:33N 60°10' E 028°03'1313.0
2016-Feb-01 13:34N 60°05' E 028°26'1313.2
2016-Feb-01 12:33N 60°03' E 028°53'2311.8
2016-Feb-01 10:33N 59°60' E 029°39'1111.0
2016-Feb-01 09:34N 59°55' E 029°59'8 7.6
2016-Feb-01 08:34N 59°52' E 030°13'0 0.3
2016-Feb-01 07:34N 59°52' E 030°13'0 0.0
2016-Feb-01 06:31N 59°52' E 030°13'0 0.0
2016-Feb-01 05:31N 59°52' E 030°13'0 0.0
2016-Feb-01 04:31N 59°52' E 030°13'0 0.0
2016-Feb-01 03:31N 59°52' E 030°13'0 0.0
2016-Feb-01 02:33N 59°52' E 030°13'0 0.0
2016-Feb-01 01:33N 59°52' E 030°13'0 0.0
2016-Feb-01 00:33N 59°52' E 030°13'0 0.0
2016-Jan-31 23:33N 59°52' E 030°13'0 0.0
2016-Jan-31 22:33N 59°52' E 030°13'0 0.0
2016-Jan-31 21:33N 59°52' E 030°13'0 0.0
2016-Jan-31 20:33N 59°52' E 030°13'0 0.0
2016-Jan-31 19:33N 59°52' E 030°13'0 0.0
2016-Jan-31 18:33N 59°52' E 030°13'0 0.0
2016-Jan-31 17:33N 59°52' E 030°13'0 0.0
2016-Jan-31 16:33N 59°52' E 030°13'0 0.0
2016-Jan-31 15:33N 59°52' E 030°13'0 0.0
2016-Jan-31 14:33N 59°52' E 030°13'0 0.0
2016-Jan-31 13:33N 59°52' E 030°13'0 0.0
2016-Jan-31 12:33N 59°52' E 030°13'0 0.0
2016-Jan-31 11:33N 59°52' E 030°13'0 0.0
2016-Jan-31 10:33N 59°52' E 030°13'0 0.0
2016-Jan-31 09:33N 59°52' E 030°13'0 0.0
2016-Jan-31 08:33N 59°52' E 030°13'0 0.0
2016-Jan-31 07:33N 59°52' E 030°13'0 0.0
2016-Jan-31 06:33N 59°52' E 030°13'0 0.0
2016-Jan-31 05:33N 59°52' E 030°13'0 0.0
2016-Jan-31 04:33N 59°52' E 030°13'  

Dump ship's entire track history